DAL120 KATL-KRDU
Flight info
| Callsign | DAL120 |
|---|---|
| Flight time | 0h 57m |
| Altitude | 29000 |
| Route | GAIRY2 IRQ PYRES DMSTR2 |
| Aircraft | B739/M-SDE2E3FGHIRWXY/LB1 |
Departure
| Time | 2026-05-06 23:41 |
|---|---|
| Airport | Hartsfield Jackson Atlanta International Airport (KATL) |
Arrival
| Time | 2026-05-07 00:39 |
|---|---|
| Airport | Raleigh-Durham International Airport (KRDU) |
| Time | Latitude | Longitude | Altitude | Speed | Heading |
|---|---|---|---|---|---|
| 2026-05-06 23:19 | 33.63875 | -84.43644 | 1005 ft | 0 kts | 88° |
| 2026-05-06 23:31 | 33.63875 | -84.43661 | 1005 ft | 4 kts | 90° |
| 2026-05-06 23:31 | 33.63879 | -84.43692 | 1005 ft | 4 kts | 115° |
| 2026-05-06 23:31 | 33.63894 | -84.43716 | 1005 ft | 4 kts | 154° |
| 2026-05-06 23:32 | 33.63910 | -84.43721 | 1005 ft | 1 kts | 180° |
| 2026-05-06 23:32 | 33.63913 | -84.43721 | 1005 ft | 0 kts | 180° |
| 2026-05-06 23:34 | 33.63906 | -84.43721 | 1005 ft | 3 kts | 180° |
| 2026-05-06 23:34 | 33.63860 | -84.43722 | 1005 ft | 8 kts | 180° |
| 2026-05-06 23:34 | 33.63802 | -84.43721 | 1005 ft | 9 kts | 179° |
| 2026-05-06 23:34 | 33.63759 | -84.43721 | 1005 ft | 1 kts | 180° |
| 2026-05-06 23:35 | 33.63751 | -84.43721 | 1005 ft | 0 kts | 180° |
| 2026-05-06 23:35 | 33.63744 | -84.43721 | 1005 ft | 3 kts | 180° |
| 2026-05-06 23:35 | 33.63711 | -84.43720 | 1005 ft | 5 kts | 172° |
| 2026-05-06 23:36 | 33.63676 | -84.43691 | 1005 ft | 10 kts | 124° |
| 2026-05-06 23:36 | 33.63664 | -84.43593 | 1005 ft | 14 kts | 90° |
| 2026-05-06 23:36 | 33.63663 | -84.43466 | 1005 ft | 16 kts | 90° |
| 2026-05-06 23:36 | 33.63664 | -84.43323 | 1005 ft | 18 kts | 90° |
| 2026-05-06 23:37 | 33.63664 | -84.43167 | 1005 ft | 19 kts | 90° |
| 2026-05-06 23:37 | 33.63664 | -84.42998 | 1005 ft | 21 kts | 90° |
| 2026-05-06 23:37 | 33.63662 | -84.42815 | 1005 ft | 23 kts | 91° |
| 2026-05-06 23:37 | 33.63655 | -84.42624 | 1006 ft | 23 kts | 90° |
| 2026-05-06 23:38 | 33.63655 | -84.42437 | 1006 ft | 22 kts | 90° |
| 2026-05-06 23:38 | 33.63655 | -84.42255 | 1006 ft | 21 kts | 89° |
| 2026-05-06 23:38 | 33.63603 | -84.42093 | 1006 ft | 21 kts | 118° |
| 2026-05-06 23:38 | 33.63582 | -84.41914 | 1005 ft | 23 kts | 89° |
| 2026-05-06 23:39 | 33.63581 | -84.41715 | 1005 ft | 24 kts | 91° |
| 2026-05-06 23:39 | 33.63580 | -84.41506 | 1004 ft | 26 kts | 90° |
| 2026-05-06 23:39 | 33.63581 | -84.41287 | 1005 ft | 27 kts | 90° |
| 2026-05-06 23:39 | 33.63582 | -84.41062 | 1005 ft | 27 kts | 89° |
| 2026-05-06 23:40 | 33.63529 | -84.40914 | 1006 ft | 18 kts | 173° |
| 2026-05-06 23:40 | 33.63472 | -84.41039 | 1005 ft | 32 kts | 269° |
| 2026-05-06 23:40 | 33.63469 | -84.41612 | 1004 ft | 104 kts | 270° |
| 2026-05-06 23:40 | 33.63469 | -84.42719 | 1007 ft | 159 kts | 269° |
| 2026-05-06 23:41 | 33.63500 | -84.44150 | 1364 ft | 179 kts | 271° |
| 2026-05-06 23:41 | 33.63523 | -84.45749 | 1782 ft | 193 kts | 269° |
| 2026-05-06 23:41 | 33.63437 | -84.47250 | 2827 ft | 175 kts | 250° |
| 2026-05-06 23:41 | 33.62897 | -84.48557 | 3295 ft | 187 kts | 241° |
| 2026-05-06 23:42 | 33.62285 | -84.50037 | 3488 ft | 209 kts | 243° |
| 2026-05-06 23:42 | 33.61625 | -84.51649 | 3866 ft | 220 kts | 243° |
| 2026-05-06 23:42 | 33.60939 | -84.53321 | 4375 ft | 226 kts | 243° |
| 2026-05-06 23:42 | 33.60240 | -84.55018 | 4946 ft | 232 kts | 243° |
| 2026-05-06 23:43 | 33.59391 | -84.56743 | 5313 ft | 248 kts | 228° |
| 2026-05-06 23:43 | 33.57970 | -84.57955 | 6038 ft | 255 kts | 208° |
| 2026-05-06 23:43 | 33.56244 | -84.58499 | 6792 ft | 263 kts | 189° |
| 2026-05-06 23:43 | 33.54398 | -84.58552 | 7520 ft | 266 kts | 185° |
| 2026-05-06 23:44 | 33.52533 | -84.58524 | 8253 ft | 270 kts | 185° |
| 2026-05-06 23:44 | 33.50638 | -84.58498 | 8953 ft | 274 kts | 186° |
| 2026-05-06 23:44 | 33.48716 | -84.58225 | 9626 ft | 288 kts | 167° |
| 2026-05-06 23:44 | 33.46964 | -84.56937 | 10289 ft | 306 kts | 141° |
| 2026-05-06 23:45 | 33.45745 | -84.54723 | 10571 ft | 339 kts | 113° |
| 2026-05-06 23:45 | 33.45395 | -84.51816 | 10753 ft | 366 kts | 93° |
| 2026-05-06 23:45 | 33.45440 | -84.48676 | 10918 ft | 387 kts | 90° |
| 2026-05-06 23:45 | 33.45540 | -84.45410 | 11313 ft | 397 kts | 90° |
| 2026-05-06 23:46 | 33.45604 | -84.42097 | 11905 ft | 400 kts | 92° |
| 2026-05-06 23:46 | 33.45616 | -84.38793 | 12521 ft | 402 kts | 93° |
| 2026-05-06 23:46 | 33.45598 | -84.35427 | 13134 ft | 407 kts | 93° |
| 2026-05-06 23:46 | 33.45608 | -84.32012 | 13712 ft | 413 kts | 90° |
| 2026-05-06 23:47 | 33.45811 | -84.28567 | 14273 ft | 417 kts | 86° |
| 2026-05-06 23:47 | 33.46110 | -84.25098 | 14825 ft | 421 kts | 85° |
| 2026-05-06 23:47 | 33.46436 | -84.21596 | 15370 ft | 426 kts | 85° |
| 2026-05-06 23:47 | 33.46761 | -84.18053 | 15927 ft | 430 kts | 85° |
| 2026-05-06 23:48 | 33.47073 | -84.14476 | 16500 ft | 433 kts | 85° |
| 2026-05-06 23:48 | 33.47372 | -84.10874 | 17049 ft | 437 kts | 85° |
| 2026-05-06 23:48 | 33.47664 | -84.07233 | 17566 ft | 441 kts | 85° |
| 2026-05-06 23:48 | 33.47953 | -84.03555 | 18071 ft | 446 kts | 84° |
| 2026-05-06 23:49 | 33.48242 | -83.99834 | 18529 ft | 450 kts | 84° |
| 2026-05-06 23:49 | 33.48531 | -83.96095 | 18992 ft | 453 kts | 84° |
| 2026-05-06 23:49 | 33.48823 | -83.92310 | 19413 ft | 458 kts | 84° |
| 2026-05-06 23:49 | 33.49116 | -83.88498 | 19841 ft | 462 kts | 84° |
| 2026-05-06 23:50 | 33.49411 | -83.84644 | 20303 ft | 466 kts | 84° |
| 2026-05-06 23:50 | 33.50006 | -83.76851 | 21170 ft | 474 kts | 84° |
| 2026-05-06 23:50 | 33.50306 | -83.72909 | 21600 ft | 477 kts | 84° |
| 2026-05-06 23:51 | 33.50607 | -83.68934 | 22017 ft | 481 kts | 84° |
| 2026-05-06 23:51 | 33.50908 | -83.64922 | 22438 ft | 485 kts | 83° |
| 2026-05-06 23:51 | 33.51281 | -83.60889 | 22836 ft | 488 kts | 80° |
| 2026-05-06 23:51 | 33.51796 | -83.56862 | 23244 ft | 491 kts | 78° |
| 2026-05-06 23:52 | 33.52377 | -83.52859 | 23589 ft | 496 kts | 77° |
| 2026-05-06 23:52 | 33.52998 | -83.48717 | 23872 ft | 500 kts | 77° |
| 2026-05-06 23:52 | 33.53609 | -83.44608 | 24221 ft | 502 kts | 78° |
| 2026-05-06 23:52 | 33.54200 | -83.40531 | 24611 ft | 503 kts | 78° |
| 2026-05-06 23:53 | 33.54786 | -83.36385 | 24975 ft | 506 kts | 78° |
| 2026-05-06 23:53 | 33.55365 | -83.32209 | 25315 ft | 508 kts | 78° |
| 2026-05-06 23:53 | 33.55939 | -83.28017 | 25638 ft | 511 kts | 78° |
| 2026-05-06 23:53 | 33.56513 | -83.23800 | 25971 ft | 514 kts | 78° |
| 2026-05-06 23:54 | 33.57087 | -83.19562 | 26303 ft | 516 kts | 78° |
| 2026-05-06 23:54 | 33.57664 | -83.15300 | 26638 ft | 518 kts | 78° |
| 2026-05-06 23:54 | 33.58240 | -83.11034 | 27009 ft | 519 kts | 78° |
| 2026-05-06 23:54 | 33.58817 | -83.06760 | 27364 ft | 520 kts | 78° |
| 2026-05-06 23:55 | 33.59396 | -83.02461 | 27655 ft | 523 kts | 78° |
| 2026-05-06 23:55 | 33.59977 | -82.98142 | 27939 ft | 525 kts | 79° |
| 2026-05-06 23:55 | 33.60558 | -82.93808 | 28271 ft | 527 kts | 79° |
| 2026-05-06 23:55 | 33.61138 | -82.89467 | 28625 ft | 527 kts | 79° |
| 2026-05-06 23:56 | 33.61718 | -82.85120 | 28956 ft | 528 kts | 79° |
| 2026-05-06 23:56 | 33.62297 | -82.80758 | 28979 ft | 531 kts | 79° |
| 2026-05-06 23:56 | 33.63473 | -82.72030 | 28998 ft | 527 kts | 78° |
| 2026-05-06 23:57 | 33.64618 | -82.63353 | 29014 ft | 525 kts | 79° |
| 2026-05-06 23:57 | 33.65739 | -82.54756 | 29012 ft | 525 kts | 79° |
| 2026-05-06 23:58 | 33.66865 | -82.46087 | 28976 ft | 525 kts | 79° |
| 2026-05-06 23:58 | 33.67985 | -82.37421 | 28973 ft | 526 kts | 79° |
| 2026-05-06 23:59 | 33.69102 | -82.28735 | 28975 ft | 526 kts | 79° |
| 2026-05-06 23:59 | 33.70028 | -82.21498 | 28975 ft | 527 kts | 79° |
| 2026-05-07 00:00 | 33.71308 | -82.12826 | 28976 ft | 527 kts | 73° |
| 2026-05-07 00:00 | 33.73451 | -82.04440 | 28981 ft | 525 kts | 68° |
| 2026-05-07 00:01 | 33.75747 | -81.96106 | 28977 ft | 526 kts | 70° |
| 2026-05-07 00:01 | 33.77909 | -81.87695 | 28974 ft | 526 kts | 70° |
| 2026-05-07 00:02 | 33.80019 | -81.79267 | 28971 ft | 526 kts | 71° |
| 2026-05-07 00:02 | 33.82109 | -81.70895 | 28971 ft | 526 kts | 70° |
| 2026-05-07 00:03 | 33.84212 | -81.62477 | 28953 ft | 525 kts | 70° |
| 2026-05-07 00:03 | 33.86371 | -81.54083 | 28952 ft | 522 kts | 65° |
| 2026-05-07 00:04 | 33.89865 | -81.46538 | 28966 ft | 514 kts | 53° |
| 2026-05-07 00:04 | 33.93700 | -81.39266 | 28967 ft | 515 kts | 53° |
| 2026-05-07 00:05 | 33.97490 | -81.31934 | 28962 ft | 516 kts | 54° |
| 2026-05-07 00:05 | 34.01207 | -81.24535 | 28945 ft | 515 kts | 54° |
| 2026-05-07 00:06 | 34.04864 | -81.17170 | 28952 ft | 515 kts | 55° |
| 2026-05-07 00:06 | 34.08536 | -81.09763 | 28961 ft | 514 kts | 55° |
| 2026-05-07 00:07 | 34.12210 | -81.02349 | 28966 ft | 514 kts | 55° |
| 2026-05-07 00:07 | 34.15877 | -80.94941 | 28990 ft | 514 kts | 56° |
| 2026-05-07 00:08 | 34.19539 | -80.87527 | 28967 ft | 513 kts | 56° |
| 2026-05-07 00:08 | 34.23189 | -80.80121 | 28964 ft | 512 kts | 56° |
| 2026-05-07 00:09 | 34.26826 | -80.72724 | 28969 ft | 511 kts | 56° |
| 2026-05-07 00:09 | 34.30453 | -80.65335 | 28968 ft | 511 kts | 56° |
| 2026-05-07 00:10 | 34.34053 | -80.57984 | 28971 ft | 510 kts | 56° |
| 2026-05-07 00:10 | 34.37668 | -80.50589 | 28988 ft | 510 kts | 56° |
| 2026-05-07 00:11 | 34.41286 | -80.43189 | 28981 ft | 510 kts | 56° |
| 2026-05-07 00:11 | 34.44871 | -80.35840 | 28974 ft | 509 kts | 56° |
| 2026-05-07 00:12 | 34.46680 | -80.32120 | 28331 ft | 517 kts | 56° |
| 2026-05-07 00:12 | 34.48488 | -80.28387 | 27747 ft | 511 kts | 56° |
| 2026-05-07 00:12 | 34.50272 | -80.24683 | 27058 ft | 506 kts | 56° |
| 2026-05-07 00:12 | 34.52043 | -80.21010 | 26414 ft | 501 kts | 56° |
| 2026-05-07 00:13 | 34.53794 | -80.17385 | 25771 ft | 497 kts | 56° |
| 2026-05-07 00:13 | 34.55538 | -80.13782 | 25106 ft | 493 kts | 55° |
| 2026-05-07 00:13 | 34.57268 | -80.10209 | 24454 ft | 489 kts | 55° |
| 2026-05-07 00:13 | 34.58986 | -80.06655 | 23822 ft | 486 kts | 55° |
| 2026-05-07 00:14 | 34.60692 | -80.03122 | 23075 ft | 484 kts | 54° |
| 2026-05-07 00:14 | 34.62386 | -79.99607 | 22382 ft | 480 kts | 55° |
| 2026-05-07 00:14 | 34.64131 | -79.96195 | 21895 ft | 467 kts | 48° |
| 2026-05-07 00:14 | 34.66206 | -79.93318 | 21773 ft | 436 kts | 37° |
| 2026-05-07 00:15 | 34.68438 | -79.91005 | 21490 ft | 410 kts | 30° |
| 2026-05-07 00:15 | 34.70779 | -79.89138 | 20784 ft | 396 kts | 20° |
| 2026-05-07 00:15 | 34.73205 | -79.87576 | 19961 ft | 395 kts | 20° |
| 2026-05-07 00:15 | 34.75629 | -79.85991 | 19241 ft | 397 kts | 21° |
| 2026-05-07 00:16 | 34.78048 | -79.84388 | 18810 ft | 393 kts | 22° |
| 2026-05-07 00:16 | 34.80399 | -79.82813 | 18487 ft | 388 kts | 22° |
| 2026-05-07 00:16 | 34.82781 | -79.81214 | 18062 ft | 384 kts | 21° |
| 2026-05-07 00:16 | 34.85069 | -79.79675 | 17418 ft | 379 kts | 21° |
| 2026-05-07 00:17 | 34.87351 | -79.78141 | 17175 ft | 371 kts | 21° |
| 2026-05-07 00:17 | 34.89610 | -79.76630 | 17068 ft | 372 kts | 21° |
| 2026-05-07 00:17 | 34.91903 | -79.75095 | 17034 ft | 379 kts | 21° |
| 2026-05-07 00:17 | 34.94227 | -79.73535 | 17030 ft | 382 kts | 22° |
| 2026-05-07 00:18 | 34.96557 | -79.71965 | 17018 ft | 382 kts | 22° |
| 2026-05-07 00:18 | 34.98880 | -79.70398 | 17008 ft | 380 kts | 22° |
| 2026-05-07 00:18 | 35.01194 | -79.68835 | 17004 ft | 381 kts | 22° |
| 2026-05-07 00:18 | 35.03573 | -79.67235 | 16747 ft | 400 kts | 22° |
| 2026-05-07 00:19 | 35.06008 | -79.65599 | 16500 ft | 395 kts | 22° |
| 2026-05-07 00:19 | 35.08388 | -79.63996 | 16253 ft | 387 kts | 22° |
| 2026-05-07 00:19 | 35.10723 | -79.62417 | 15995 ft | 380 kts | 22° |
| 2026-05-07 00:19 | 35.13017 | -79.60865 | 15746 ft | 375 kts | 22° |
| 2026-05-07 00:20 | 35.15292 | -79.59327 | 15507 ft | 373 kts | 22° |
| 2026-05-07 00:20 | 35.17562 | -79.57794 | 15477 ft | 370 kts | 22° |
| 2026-05-07 00:20 | 35.19758 | -79.56301 | 16459 ft | 349 kts | 21° |
| 2026-05-07 00:20 | 35.21833 | -79.54884 | 16647 ft | 349 kts | 21° |
| 2026-05-07 00:21 | 35.24085 | -79.53380 | 15558 ft | 378 kts | 22° |
| 2026-05-07 00:21 | 35.26398 | -79.51821 | 15412 ft | 392 kts | 22° |
| 2026-05-07 00:21 | 35.28817 | -79.50179 | 15175 ft | 399 kts | 22° |
| 2026-05-07 00:21 | 35.31223 | -79.48535 | 14948 ft | 392 kts | 23° |
| 2026-05-07 00:22 | 35.33578 | -79.46927 | 14697 ft | 383 kts | 23° |
| 2026-05-07 00:22 | 35.35861 | -79.45303 | 14446 ft | 378 kts | 28° |
| 2026-05-07 00:22 | 35.37962 | -79.43372 | 14217 ft | 376 kts | 34° |
| 2026-05-07 00:22 | 35.39960 | -79.41310 | 13975 ft | 375 kts | 36° |
| 2026-05-07 00:23 | 35.41929 | -79.39230 | 13736 ft | 372 kts | 36° |
| 2026-05-07 00:23 | 35.43892 | -79.37171 | 13476 ft | 370 kts | 36° |
| 2026-05-07 00:23 | 35.45852 | -79.35145 | 13221 ft | 368 kts | 35° |
| 2026-05-07 00:23 | 35.47815 | -79.33138 | 12958 ft | 366 kts | 35° |
| 2026-05-07 00:24 | 35.49775 | -79.31149 | 12696 ft | 365 kts | 34° |
| 2026-05-07 00:24 | 35.51733 | -79.29169 | 12457 ft | 364 kts | 35° |
| 2026-05-07 00:24 | 35.53689 | -79.27191 | 12214 ft | 363 kts | 35° |
| 2026-05-07 00:24 | 35.55637 | -79.25222 | 11965 ft | 363 kts | 35° |
| 2026-05-07 00:25 | 35.57583 | -79.23253 | 11723 ft | 362 kts | 35° |
| 2026-05-07 00:25 | 35.59502 | -79.21310 | 11484 ft | 362 kts | 35° |
| 2026-05-07 00:25 | 35.61438 | -79.19349 | 11243 ft | 360 kts | 35° |
| 2026-05-07 00:25 | 35.63340 | -79.17370 | 10993 ft | 358 kts | 40° |
| 2026-05-07 00:26 | 35.64947 | -79.15005 | 10762 ft | 361 kts | 51° |
| 2026-05-07 00:26 | 35.66413 | -79.12482 | 10489 ft | 363 kts | 52° |
| 2026-05-07 00:26 | 35.67863 | -79.09946 | 10366 ft | 361 kts | 52° |
| 2026-05-07 00:26 | 35.69317 | -79.07430 | 10222 ft | 358 kts | 51° |
| 2026-05-07 00:27 | 35.70740 | -79.04998 | 10047 ft | 342 kts | 51° |
| 2026-05-07 00:27 | 35.72113 | -79.02674 | 9759 ft | 331 kts | 50° |
| 2026-05-07 00:27 | 35.73459 | -79.00414 | 9408 ft | 325 kts | 50° |
| 2026-05-07 00:27 | 35.74783 | -78.98192 | 9079 ft | 320 kts | 51° |
| 2026-05-07 00:28 | 35.76097 | -78.95986 | 8742 ft | 319 kts | 50° |
| 2026-05-07 00:28 | 35.77418 | -78.93768 | 8415 ft | 322 kts | 51° |
| 2026-05-07 00:28 | 35.78818 | -78.91678 | 8064 ft | 318 kts | 35° |
| 2026-05-07 00:28 | 35.80694 | -78.90402 | 7850 ft | 301 kts | 13° |
| 2026-05-07 00:29 | 35.82673 | -78.89705 | 7639 ft | 292 kts | 7° |
| 2026-05-07 00:29 | 35.84617 | -78.89138 | 7477 ft | 281 kts | 7° |
| 2026-05-07 00:30 | 35.89983 | -78.87508 | 6916 ft | 255 kts | 7° |
| 2026-05-07 00:30 | 35.91702 | -78.86976 | 6716 ft | 254 kts | 7° |
| 2026-05-07 00:30 | 35.93422 | -78.86440 | 6503 ft | 255 kts | 7° |
| 2026-05-07 00:30 | 35.95033 | -78.85466 | 6263 ft | 267 kts | 36° |
| 2026-05-07 00:31 | 35.96371 | -78.83828 | 6185 ft | 272 kts | 41° |
| 2026-05-07 00:31 | 35.97702 | -78.82191 | 6030 ft | 266 kts | 38° |
| 2026-05-07 00:31 | 35.99026 | -78.80615 | 5608 ft | 265 kts | 40° |
| 2026-05-07 00:31 | 36.00362 | -78.79031 | 5079 ft | 268 kts | 40° |
| 2026-05-07 00:32 | 36.01714 | -78.77442 | 4607 ft | 268 kts | 39° |
| 2026-05-07 00:32 | 36.03022 | -78.75893 | 4439 ft | 255 kts | 40° |
| 2026-05-07 00:32 | 36.04303 | -78.74399 | 4016 ft | 252 kts | 40° |
| 2026-05-07 00:32 | 36.05576 | -78.72919 | 3565 ft | 251 kts | 40° |
| 2026-05-07 00:33 | 36.06751 | -78.71318 | 3122 ft | 255 kts | 60° |
| 2026-05-07 00:33 | 36.07185 | -78.69235 | 3009 ft | 252 kts | 96° |
| 2026-05-07 00:33 | 36.06736 | -78.67245 | 2997 ft | 238 kts | 125° |
| 2026-05-07 00:33 | 36.05834 | -78.65572 | 2990 ft | 231 kts | 136° |
| 2026-05-07 00:34 | 36.04582 | -78.64463 | 2996 ft | 217 kts | 165° |
| 2026-05-07 00:34 | 36.03186 | -78.63915 | 2979 ft | 204 kts | 170° |
| 2026-05-07 00:34 | 36.01857 | -78.63433 | 2982 ft | 197 kts | 171° |
| 2026-05-07 00:34 | 36.00560 | -78.63527 | 2721 ft | 184 kts | 213° |
| 2026-05-07 00:35 | 35.99634 | -78.64561 | 2523 ft | 178 kts | 234° |
| 2026-05-07 00:35 | 35.98949 | -78.65758 | 2362 ft | 170 kts | 235° |
| 2026-05-07 00:35 | 35.98185 | -78.66878 | 2046 ft | 167 kts | 228° |
| 2026-05-07 00:35 | 35.97386 | -78.67895 | 1833 ft | 162 kts | 226° |
| 2026-05-07 00:36 | 35.96587 | -78.68876 | 1746 ft | 160 kts | 226° |
| 2026-05-07 00:36 | 35.95800 | -78.69804 | 1723 ft | 154 kts | 225° |
| 2026-05-07 00:36 | 35.95001 | -78.70788 | 1630 ft | 166 kts | 227° |
| 2026-05-07 00:36 | 35.94198 | -78.71793 | 1476 ft | 165 kts | 228° |
| 2026-05-07 00:37 | 35.93405 | -78.72824 | 1261 ft | 158 kts | 226° |
| 2026-05-07 00:37 | 35.92675 | -78.73726 | 1121 ft | 144 kts | 225° |
| 2026-05-07 00:37 | 35.91982 | -78.74590 | 968 ft | 139 kts | 225° |
| 2026-05-07 00:37 | 35.91279 | -78.75462 | 828 ft | 145 kts | 226° |
| 2026-05-07 00:38 | 35.90575 | -78.76339 | 727 ft | 145 kts | 225° |
| 2026-05-07 00:38 | 35.89858 | -78.77223 | 537 ft | 147 kts | 225° |
| 2026-05-07 00:38 | 35.89129 | -78.78115 | 400 ft | 145 kts | 226° |
| 2026-05-07 00:38 | 35.88504 | -78.78890 | 390 ft | 80 kts | 225° |
| 2026-05-07 00:39 | 35.88309 | -78.79064 | 390 ft | 7 kts | 186° |
| 2026-05-07 00:39 | 35.88295 | -78.79064 | 390 ft | 1 kts | 174° |
| 2026-05-07 00:39 | 35.88269 | -78.79053 | 390 ft | 1 kts | 151° |
| 2026-05-07 00:39 | 35.88268 | -78.79051 | 390 ft | 0 kts | 149° |
| 2026-05-07 00:40 | 35.88262 | -78.79047 | 390 ft | 2 kts | 148° |
| 2026-05-07 00:40 | 35.88251 | -78.79039 | 390 ft | 0 kts | 148° |
| 2026-05-07 00:40 | 35.88238 | -78.79038 | 390 ft | 9 kts | 187° |
| 2026-05-07 00:40 | 35.88175 | -78.79104 | 391 ft | 13 kts | 226° |
| 2026-05-07 00:41 | 35.88113 | -78.79182 | 391 ft | 12 kts | 225° |
| 2026-05-07 00:41 | 35.88053 | -78.79257 | 391 ft | 12 kts | 225° |
| 2026-05-07 00:41 | 35.87999 | -78.79323 | 391 ft | 7 kts | 225° |
| 2026-05-07 00:41 | 35.87987 | -78.79338 | 391 ft | 0 kts | 225° |
| 2026-05-07 00:42 | 35.87968 | -78.79353 | 391 ft | 7 kts | 205° |
| 2026-05-07 00:42 | 35.87936 | -78.79354 | 391 ft | 0 kts | 159° |
| 2026-05-07 00:42 | 35.87924 | -78.79347 | 391 ft | 8 kts | 158° |
| 2026-05-07 00:43 | 35.87868 | -78.79379 | 391 ft | 8 kts | 224° |
| 2026-05-07 00:43 | 35.87820 | -78.79436 | 391 ft | 10 kts | 224° |
| 2026-05-07 00:43 | 35.87766 | -78.79427 | 391 ft | 3 kts | 137° |
| 2026-05-07 00:43 | 35.87759 | -78.79419 | 391 ft | 0 kts | 137° |